Time;durP1;ratioP1;P1;durP2;ratioP2;P2;SDS_P1;SDS_P2;PMS_P1;PMS_P2;Temp;Humidity;BMP_temperature;BMP_pressure;BME280_temperature;BME280_humidity;BME280_pressure;Samples;Min_cycle;Max_cycle;Signal;HPM_P1;HPM_P2
2022/06/02 00:01:23;;;;;;;;;;;;;;;;;;4956758;28;19928;-63
2022/06/02 00:03:49;;;;;;;;;;;;;;;;;;4943626;28;20009;-63
2022/06/02 00:06:16;;;;;;;;;;;;;;;;;;4958888;28;20482;-63
2022/06/02 00:08:42;;;;;;;;;;;;;;;;;;4956249;28;20039;-63
2022/06/02 00:11:10;;;;;;;;;;;;;;;;;;4940808;28;20516;-63
2022/06/02 00:13:36;;;;;;;;;;;;;;;;;;4955639;28;19925;-62
2022/06/02 00:16:03;;;;;;;;;;;;;;;;;;4954934;28;19918;-63
2022/06/02 00:18:29;;;;;;;;;;;;;;;;;;4955932;28;20554;-63
2022/06/02 00:20:57;;;;;;;;;;;;;;;;;;4941199;28;19917;-63
2022/06/02 00:23:22;;;;;;;;;;;;;;;;;;4935353;28;19933;-63
2022/06/02 00:25:50;;;;;;;;;;;;;;;;;;4947642;28;19925;-63
2022/06/02 00:28:15;;;;;;;;;;;;;;;;;;4959757;28;20394;-63
2022/06/02 00:30:43;;;;;;;;;;;;;;;;;;4953078;28;20397;-63
2022/06/02 00:33:11;;;;;;;;;;;;;;;;;;4952930;28;19930;-63
2022/06/02 00:35:39;;;;;;;;;;;;;;;;;;4959660;28;20413;-63
2022/06/02 00:38:07;;;;;;;;;;;;;;;;;;4953907;28;19921;-63
2022/06/02 00:40:32;;;;;;;;;;;;;;;;;;4940554;28;19944;-63
2022/06/02 00:42:58;;;;;;;;;;;;;;;;;;4956878;28;19971;-63
2022/06/02 00:45:23;;;;;;;;;;;;;;;;;;4954403;28;19922;-62
2022/06/02 00:47:49;;;;;;;;;;;;;;;;;;4949813;28;20044;-62
2022/06/02 00:50:16;;;;;;;;;;;;;;;;;;4956740;28;19922;-63
2022/06/02 00:52:44;;;;;;;;;;;;;;;;;;4957432;28;20305;-62
2022/06/02 00:57:58;;;;;;;;;;;;;;;;;;4952822;28;19926;-62
2022/06/02 01:00:26;;;;;;;;;;;;;;;;;;4951781;28;19929;-62
2022/06/02 01:02:53;;;;;;;;;;;;;;;;;;4975179;28;19961;-63
2022/06/02 01:05:20;;;;;;;;;;;;;;;;;;4961064;28;20078;-62
2022/06/02 01:07:51;;;;;;;;;;;;;;;;;;4954687;28;19925;-62
2022/06/02 01:10:22;;;;;;;;;;;;;;;;;;4956253;28;20577;-62
2022/06/02 01:12:47;;;;;;;;;;;;;;;;;;4953107;28;19925;-62
2022/06/02 01:15:15;;;;;;;;;;;;;;;;;;4957337;28;19929;-62
2022/06/02 01:17:41;;;;;;;;;;;;;;;;;;4954433;28;19925;-63
2022/06/02 01:20:09;;;;;;;;;;;;;;;;;;4957319;28;20681;-62
2022/06/02 01:22:34;;;;;;;;;;;;;;;;;;4953977;28;19949;-62
2022/06/02 01:25:02;;;;;;;;;;;;;;;;;;4957695;28;19945;-62
2022/06/02 01:27:27;;;;;;;;;;;;;;;;;;4956886;28;19961;-63
2022/06/02 01:29:55;;;;;;;;;;;;;;;;;;4953841;28;19928;-62
2022/06/02 01:32:23;;;;;;;;;;;;;;;;;;4936466;28;19941;-62
2022/06/02 01:34:53;;;;;;;;;;;;;;;;;;4958201;28;19918;-62
2022/06/02 01:37:19;;;;;;;;;;;;;;;;;;4961468;28;20048;-62
2022/06/02 01:39:47;;;;;;;;;;;;;;;;;;4958934;28;19932;-63
2022/06/02 01:42:13;;;;;;;;;;;;;;;;;;4963125;28;19925;-62
2022/06/02 01:44:39;;;;;;;;;;;;;;;;;;4962828;28;19918;-62
2022/06/02 01:47:05;;;;;;;;;;;;;;;;;;4956802;28;20472;-62
2022/06/02 01:49:30;;;;;;;;;;;;;;;;;;4951013;28;19929;-62
2022/06/02 01:51:55;;;;;;;;;;;;;;;;;;4954814;28;20041;-62
2022/06/02 01:54:22;;;;;;;;;;;;;;;;;;4958682;28;19926;-63
2022/06/02 01:56:48;;;;;;;;;;;;;;;;;;4955863;28;20395;-62
2022/06/02 01:59:14;;;;;;;;;;;;;;;;;;4956729;28;20170;-62
2022/06/02 02:01:41;;;;;;;;;;;;;;;;;;4956238;28;19921;-62
2022/06/02 02:04:07;;;;;;;;;;;;;;;;;;4975283;28;19943;-62
2022/06/02 02:06:33;;;;;;;;;;;;;;;;;;4959136;28;20071;-62
2022/06/02 02:09:01;;;;;;;;;;;;;;;;;;4938873;28;19965;-62
2022/06/02 02:11:29;;;;;;;;;;;;;;;;;;4952919;28;19928;-62
2022/06/02 02:13:56;;;;;;;;;;;;;;;;;;4895615;28;1840561;-62
2022/06/02 02:16:22;;;;;;;;;;;;;;;;;;4959446;28;19925;-62
2022/06/02 02:18:47;;;;;;;;;;;;;;;;;;4958411;28;20045;-62
2022/06/02 02:21:12;;;;;;;;;;;;;;;;;;4961362;28;19929;-63
2022/06/02 02:23:38;;;;;;;;;;;;;;;;;;4941756;28;20660;-62
2022/06/02 02:26:03;;;;;;;;;;;;;;;;;;4957671;28;20001;-62
2022/06/02 02:28:31;;;;;;;;;;;;;;;;;;4962353;28;19918;-63
2022/06/02 02:30:56;;;;;;;;;;;;;;;;;;4957519;28;19932;-63
2022/06/02 02:33:24;;;;;;;;;;;;;;;;;;4952347;28;19926;-62
2022/06/02 02:36:04;;;;;;;;;;;;;;;;;;4961542;28;19931;-62
2022/06/02 02:38:29;;;;;;;;;;;;;;;;;;4975287;28;19968;-63
2022/06/02 02:40:54;;;;;;;;;;;;;;;;;;4958743;28;19922;-62
2022/06/02 02:43:22;;;;;;;;;;;;;;;;;;4953216;28;19945;-62
2022/06/02 02:45:51;;;;;;;;;;;;;;;;;;4957886;28;19926;-63
2022/06/02 02:48:17;;;;;;;;;;;;;;;;;;4971829;28;19929;-63
2022/06/02 02:50:42;;;;;;;;;;;;;;;;;;4961522;28;19922;-62
2022/06/02 02:53:07;;;;;;;;;;;;;;;;;;4961054;28;20874;-62
2022/06/02 02:55:33;;;;;;;;;;;;;;;;;;4955927;28;19922;-63
2022/06/02 02:57:59;;;;;;;;;;;;;;;;;;4962720;28;19922;-62
2022/06/02 03:00:25;;;;;;;;;;;;;;;;;;4958737;28;22321;-62
2022/06/02 03:02:53;;;;;;;;;;;;;;;;;;4950806;28;19926;-63
2022/06/02 03:05:19;;;;;;;;;;;;;;;;;;4962249;28;19937;-62
2022/06/02 03:07:44;;;;;;;;;;;;;;;;;;4955613;28;20790;-63
2022/06/02 03:10:10;;;;;;;;;;;;;;;;;;4958255;28;19922;-62
2022/06/02 03:12:38;;;;;;;;;;;;;;;;;;4960336;28;19932;-63
2022/06/02 03:15:06;;;;;;;;;;;;;;;;;;4959566;28;19918;-62
2022/06/02 03:17:32;;;;;;;;;;;;;;;;;;4959205;28;19973;-63
2022/06/02 03:20:02;;;;;;;;;;;;;;;;;;4958830;28;20864;-62
2022/06/02 03:22:28;;;;;;;;;;;;;;;;;;4959067;28;19956;-63
2022/06/02 03:24:56;;;;;;;;;;;;;;;;;;4941303;28;19922;-63
2022/06/02 03:27:22;;;;;;;;;;;;;;;;;;4954034;28;19922;-63
2022/06/02 03:29:50;;;;;;;;;;;;;;;;;;4962448;28;19971;-63
2022/06/02 03:32:15;;;;;;;;;;;;;;;;;;4952902;28;20451;-63
2022/06/02 03:34:41;;;;;;;;;;;;;;;;;;4960555;28;20008;-63
2022/06/02 03:37:06;;;;;;;;;;;;;;;;;;4958172;28;19922;-63
2022/06/02 03:39:31;;;;;;;;;;;;;;;;;;4961292;28;20004;-63
2022/06/02 03:41:57;;;;;;;;;;;;;;;;;;4957002;28;19918;-63
2022/06/02 03:44:22;;;;;;;;;;;;;;;;;;4963440;28;19921;-63
2022/06/02 03:46:48;;;;;;;;;;;;;;;;;;4964975;28;19926;-63
2022/06/02 03:49:13;;;;;;;;;;;;;;;;;;4960883;28;20009;-63
2022/06/02 03:51:41;;;;;;;;;;;;;;;;;;4946204;28;19918;-63
2022/06/02 03:54:07;;;;;;;;;;;;;;;;;;4974579;28;19933;-63
2022/06/02 03:56:32;;;;;;;;;;;;;;;;;;4965093;28;21759;-63
2022/06/02 03:58:58;;;;;;;;;;;;;;;;;;4963948;28;19929;-63
2022/06/02 04:01:24;;;;;;;;;;;;;;;;;;4969098;28;19928;-63
2022/06/02 04:03:49;;;;;;;;;;;;;;;;;;4968596;28;19925;-63
2022/06/02 04:06:15;;;;;;;;;;;;;;;;;;4963768;28;20014;-63
2022/06/02 04:08:42;;;;;;;;;;;;;;;;;;4964089;28;19933;-63
2022/06/02 04:11:08;;;;;;;;;;;;;;;;;;4968443;28;19918;-63
2022/06/02 04:13:45;;;;;;;;;;;;;;;;;;4948135;28;19936;-64
2022/06/02 04:16:13;;;;;;;;;;;;;;;;;;4963689;28;20976;-64
2022/06/02 04:18:40;;;;;;;;;;;;;;;;;;4968338;28;19930;-64
2022/06/02 04:21:08;;;;;;;;;;;;;;;;;;4968262;28;19918;-65
2022/06/02 04:23:33;;;;;;;;;;;;;;;;;;4967418;28;19999;-64
2022/06/02 04:25:59;;;;;;;;;;;;;;;;;;4966339;28;20492;-64
2022/06/02 04:28:24;;;;;;;;;;;;;;;;;;4962624;28;20001;-64
2022/06/02 04:30:50;;;;;;;;;;;;;;;;;;4969180;28;19929;-64
2022/06/02 04:33:15;;;;;;;;;;;;;;;;;;4965890;28;19918;-62
2022/06/02 04:35:43;;;;;;;;;;;;;;;;;;4970690;28;19922;-63
2022/06/02 04:38:09;;;;;;;;;;;;;;;;;;4968428;28;19964;-63
2022/06/02 04:40:34;;;;;;;;;;;;;;;;;;4964875;28;19922;-64
2022/06/02 04:42:59;;;;;;;;;;;;;;;;;;4968984;28;20389;-64
2022/06/02 04:45:27;;;;;;;;;;;;;;;;;;4966204;28;19918;-63
2022/06/02 04:47:53;;;;;;;;;;;;;;;;;;4968822;28;19926;-63
2022/06/02 04:50:18;;;;;;;;;;;;;;;;;;4967258;28;19992;-63
2022/06/02 04:52:47;;;;;;;;;;;;;;;;;;4965972;28;19969;-63
2022/06/02 04:55:13;;;;;;;;;;;;;;;;;;4967928;28;19917;-63
2022/06/02 04:57:41;;;;;;;;;;;;;;;;;;4961452;28;19968;-65
2022/06/02 05:00:07;;;;;;;;;;;;;;;;;;4966825;28;19922;-63
2022/06/02 05:02:32;;;;;;;;;;;;;;;;;;4969076;28;20957;-63
2022/06/02 05:05:00;;;;;;;;;;;;;;;;;;4966364;28;19929;-62
2022/06/02 05:10:17;;;;;;;;;;;;;;;;;;4967682;28;19926;-63
2022/06/02 05:12:43;;;;;;;;;;;;;;;;;;4966423;28;19928;-63
2022/06/02 05:15:09;;;;;;;;;;;;;;;;;;4958683;28;20330;-63
2022/06/02 05:17:36;;;;;;;;;;;;;;;;;;4961866;28;20293;-63
2022/06/02 05:20:01;;;;;;;;;;;;;;;;;;4962647;28;19918;-63
2022/06/02 05:22:27;;;;;;;;;;;;;;;;;;4963150;28;19952;-63
2022/06/02 05:24:52;;;;;;;;;;;;;;;;;;4960927;28;20071;-63
2022/06/02 05:27:18;;;;;;;;;;;;;;;;;;4966908;28;19926;-64
2022/06/02 05:29:46;;;;;;;;;;;;;;;;;;4967731;28;21257;-64
2022/06/02 05:32:11;;;;;;;;;;;;;;;;;;4966510;28;19922;-65
2022/06/02 05:34:39;;;;;;;;;;;;;;;;;;4961720;28;19957;-63
2022/06/02 05:37:06;;;;;;;;;;;;;;;;;;4965983;28;20053;-64
2022/06/02 05:39:31;;;;;;;;;;;;;;;;;;4966575;28;19925;-63
2022/06/02 05:41:57;;;;;;;;;;;;;;;;;;4968035;28;20000;-63
2022/06/02 05:47:41;;;;;;;;;;;;;;;;;;4965537;28;19968;-65
2022/06/02 05:50:09;;;;;;;;;;;;;;;;;;4964568;28;19932;-64
2022/06/02 05:52:34;;;;;;;;;;;;;;;;;;4958746;28;19921;-64
2022/06/02 05:55:00;;;;;;;;;;;;;;;;;;4968148;28;20094;-64
2022/06/02 05:57:28;;;;;;;;;;;;;;;;;;4965108;28;19921;-64
2022/06/02 05:59:53;;;;;;;;;;;;;;;;;;4966540;28;19917;-64
2022/06/02 06:02:19;;;;;;;;;;;;;;;;;;4969209;28;19929;-64
2022/06/02 06:04:44;;;;;;;;;;;;;;;;;;4958194;28;19922;-65
2022/06/02 06:07:12;;;;;;;;;;;;;;;;;;4961903;28;19946;-64
2022/06/02 06:09:37;;;;;;;;;;;;;;;;;;4959506;28;20028;-65
2022/06/02 06:12:03;;;;;;;;;;;;;;;;;;4962927;28;21225;-64
2022/06/02 06:14:28;;;;;;;;;;;;;;;;;;4944634;28;20449;-64
2022/06/02 06:16:54;;;;;;;;;;;;;;;;;;4958336;28;19926;-64
2022/06/02 06:25:52;;;;;;;;;;;;;;;;;;4966212;28;19929;-64
2022/06/02 06:28:18;;;;;;;;;;;;;;;;;;4948948;28;19917;-64
2022/06/02 06:30:44;;;;;;;;;;;;;;;;;;4966928;28;19933;-65
2022/06/02 06:33:10;;;;;;;;;;;;;;;;;;4965996;28;19983;-64
2022/06/02 06:35:36;;;;;;;;;;;;;;;;;;4967317;28;20012;-65
2022/06/02 06:38:01;;;;;;;;;;;;;;;;;;4962549;28;19922;-65
2022/06/02 06:40:28;;;;;;;;;;;;;;;;;;4964309;28;20731;-65
2022/06/02 06:42:53;;;;;;;;;;;;;;;;;;4979378;28;19926;-64
2022/06/02 06:45:19;;;;;;;;;;;;;;;;;;4965398;28;19929;-64
2022/06/02 06:47:44;;;;;;;;;;;;;;;;;;4967386;28;21074;-65
2022/06/02 06:50:10;;;;;;;;;;;;;;;;;;4970233;28;20265;-65
2022/06/02 06:52:38;;;;;;;;;;;;;;;;;;4970325;28;19962;-64
2022/06/02 06:55:04;;;;;;;;;;;;;;;;;;4966359;28;19922;-64
2022/06/02 06:57:29;;;;;;;;;;;;;;;;;;4969008;28;19925;-64
2022/06/02 06:59:54;;;;;;;;;;;;;;;;;;4966843;28;20292;-64
2022/06/02 07:02:20;;;;;;;;;;;;;;;;;;4970672;28;19925;-63
2022/06/02 07:04:45;;;;;;;;;;;;;;;;;;4970416;28;20397;-64
2022/06/02 07:07:11;;;;;;;;;;;;;;;;;;4951390;28;19922;-64
2022/06/02 07:09:37;;;;;;;;;;;;;;;;;;4970754;28;19929;-64
2022/06/02 07:14:47;;;;;;;;;;;;;;;;;;4968431;28;19973;-64
2022/06/02 07:17:12;;;;;;;;;;;;;;;;;;4967259;28;20020;-63
2022/06/02 07:19:38;;;;;;;;;;;;;;;;;;4968423;28;19996;-64
2022/06/02 07:22:03;;;;;;;;;;;;;;;;;;4969613;28;20001;-64
2022/06/02 07:27:44;;;;;;;;;;;;;;;;;;4969345;28;19993;-64
2022/06/02 07:30:10;;;;;;;;;;;;;;;;;;4965820;28;21908;-64
2022/06/02 07:32:37;;;;;;;;;;;;;;;;;;4969127;28;19929;-64
2022/06/02 07:35:04;;;;;;;;;;;;;;;;;;4961838;28;19918;-64
2022/06/02 07:37:33;;;;;;;;;;;;;;;;;;4967442;28;19918;-64
2022/06/02 07:39:58;;;;;;;;;;;;;;;;;;4965739;28;19972;-64
2022/06/02 07:42:24;;;;;;;;;;;;;;;;;;4960265;28;20261;-64
2022/06/02 07:47:40;;;;;;;;;;;;;;;;;;4965473;28;19937;-65
2022/06/02 07:50:05;;;;;;;;;;;;;;;;;;4969427;28;19922;-64
2022/06/02 07:52:30;;;;;;;;;;;;;;;;;;4968403;28;19945;-64
2022/06/02 07:54:57;;;;;;;;;;;;;;;;;;4967139;28;19922;-63
2022/06/02 07:57:22;;;;;;;;;;;;;;;;;;4950024;28;19929;-63
2022/06/02 07:59:47;;;;;;;;;;;;;;;;;;4967787;28;20317;-63
2022/06/02 08:02:13;;;;;;;;;;;;;;;;;;4960712;28;19918;-63
2022/06/02 08:04:38;;;;;;;;;;;;;;;;;;4967255;28;20811;-64
2022/06/02 08:10:22;;;;;;;;;;;;;;;;;;4969113;28;19924;-64
2022/06/02 08:12:49;;;;;;;;;;;;;;;;;;4968883;28;19933;-63
2022/06/02 08:15:14;;;;;;;;;;;;;;;;;;4949785;28;20208;-64
2022/06/02 08:17:40;;;;;;;;;;;;;;;;;;4948999;28;19922;-64
2022/06/02 08:20:06;;;;;;;;;;;;;;;;;;4966814;28;19924;-64
2022/06/02 08:22:31;;;;;;;;;;;;;;;;;;4964170;28;19917;-63
2022/06/02 08:24:57;;;;;;;;;;;;;;;;;;4965681;28;20017;-62
2022/06/02 08:27:22;;;;;;;;;;;;;;;;;;4968708;28;19922;-64
2022/06/02 08:29:47;;;;;;;;;;;;;;;;;;4950906;28;19960;-63
2022/06/02 08:32:13;;;;;;;;;;;;;;;;;;4964405;28;19926;-63
2022/06/02 08:34:38;;;;;;;;;;;;;;;;;;4966233;28;20393;-65
2022/06/02 08:37:04;;;;;;;;;;;;;;;;;;4967581;28;19930;-63
2022/06/02 08:39:29;;;;;;;;;;;;;;;;;;4966664;28;21099;-63
2022/06/02 08:42:01;;;;;;;;;;;;;;;;;;4967741;28;19984;-63
2022/06/02 08:44:26;;;;;;;;;;;;;;;;;;4965695;28;20293;-64
2022/06/02 08:46:51;;;;;;;;;;;;;;;;;;4964456;28;19926;-64
2022/06/02 08:49:17;;;;;;;;;;;;;;;;;;4965312;28;19960;-63
2022/06/02 08:51:42;;;;;;;;;;;;;;;;;;4963880;28;20016;-63
2022/06/02 08:54:08;;;;;;;;;;;;;;;;;;4969544;28;19929;-64
2022/06/02 08:56:33;;;;;;;;;;;;;;;;;;4966351;28;20040;-64
2022/06/02 08:58:59;;;;;;;;;;;;;;;;;;4968766;28;19922;-64
2022/06/02 09:01:27;;;;;;;;;;;;;;;;;;4949699;28;20770;-64
2022/06/02 09:03:53;;;;;;;;;;;;;;;;;;4966803;28;19957;-64
2022/06/02 09:06:18;;;;;;;;;;;;;;;;;;4948346;28;19952;-64
2022/06/02 09:08:44;;;;;;;;;;;;;;;;;;4968849;28;20560;-64
2022/06/02 09:11:10;;;;;;;;;;;;;;;;;;4943088;28;19925;-63
2022/06/02 09:13:36;;;;;;;;;;;;;;;;;;4967714;28;20409;-65
2022/06/02 09:16:01;;;;;;;;;;;;;;;;;;4963266;28;19944;-65
2022/06/02 09:18:27;;;;;;;;;;;;;;;;;;4964383;28;19926;-66
2022/06/02 09:20:53;;;;;;;;;;;;;;;;;;4966895;28;19932;-65
2022/06/02 09:23:18;;;;;;;;;;;;;;;;;;4966946;28;19921;-63
2022/06/02 09:29:00;;;;;;;;;;;;;;;;;;4965783;28;19984;-65
2022/06/02 09:31:26;;;;;;;;;;;;;;;;;;4950066;28;21859;-66
2022/06/02 09:33:54;;;;;;;;;;;;;;;;;;4964219;28;20655;-64
2022/06/02 09:36:19;;;;;;;;;;;;;;;;;;4963857;28;20008;-65
2022/06/02 09:38:45;;;;;;;;;;;;;;;;;;4967373;28;19933;-64
2022/06/02 09:41:13;;;;;;;;;;;;;;;;;;4947262;28;19925;-64
2022/06/02 09:43:38;;;;;;;;;;;;;;;;;;4966709;28;19953;-64
2022/06/02 09:46:06;;;;;;;;;;;;;;;;;;4967274;28;19968;-65
2022/06/02 09:48:32;;;;;;;;;;;;;;;;;;4959989;28;19997;-65
2022/06/02 09:51:00;;;;;;;;;;;;;;;;;;4963601;28;19922;-64
2022/06/02 09:53:26;;;;;;;;;;;;;;;;;;4962242;28;19917;-65
2022/06/02 09:55:53;;;;;;;;;;;;;;;;;;4964797;28;20407;-64
2022/06/02 09:58:21;;;;;;;;;;;;;;;;;;4966406;28;20481;-65
2022/06/02 10:00:48;;;;;;;;;;;;;;;;;;4966992;28;19918;-64
2022/06/02 10:03:14;;;;;;;;;;;;;;;;;;4965325;28;19922;-64
2022/06/02 10:05:39;;;;;;;;;;;;;;;;;;4967267;28;19945;-65
2022/06/02 10:08:10;;;;;;;;;;;;;;;;;;4952804;28;19932;-65
2022/06/02 10:10:39;;;;;;;;;;;;;;;;;;4966708;28;19917;-65
2022/06/02 10:13:04;;;;;;;;;;;;;;;;;;4966547;28;20031;-65
2022/06/02 10:15:32;;;;;;;;;;;;;;;;;;4977143;28;19929;-65
2022/06/02 10:18:00;;;;;;;;;;;;;;;;;;4967718;28;19922;-65
2022/06/02 10:20:28;;;;;;;;;;;;;;;;;;4946480;28;20416;-66
2022/06/02 10:22:53;;;;;;;;;;;;;;;;;;4962100;28;19922;-65
2022/06/02 10:25:19;;;;;;;;;;;;;;;;;;4968245;28;19918;-66
2022/06/02 10:27:46;;;;;;;;;;;;;;;;;;4970591;28;19918;-66
2022/06/02 10:30:12;;;;;;;;;;;;;;;;;;4971817;28;19969;-65
2022/06/02 10:32:40;;;;;;;;;;;;;;;;;;4970371;28;19936;-67
2022/06/02 10:35:06;;;;;;;;;;;;;;;;;;4970956;28;19944;-65
2022/06/02 10:37:33;;;;;;;;;;;;;;;;;;4967972;28;19926;-66
2022/06/02 10:39:58;;;;;;;;;;;;;;;;;;4970786;28;19949;-66
2022/06/02 10:42:25;;;;;;;;;;;;;;;;;;4970573;28;19949;-64
2022/06/02 10:44:50;;;;;;;;;;;;;;;;;;4971265;28;20020;-66
2022/06/02 10:47:16;;;;;;;;;;;;;;;;;;4963797;28;19918;-66
2022/06/02 10:49:44;;;;;;;;;;;;;;;;;;4964667;28;19922;-66
2022/06/02 10:52:09;;;;;;;;;;;;;;;;;;4970880;28;20381;-66
2022/06/02 10:54:35;;;;;;;;;;;;;;;;;;4970285;28;19932;-66
2022/06/02 10:57:01;;;;;;;;;;;;;;;;;;4965661;28;19925;-66
2022/06/02 10:59:26;;;;;;;;;;;;;;;;;;4966248;28;21990;-66
2022/06/02 11:01:52;;;;;;;;;;;;;;;;;;4968921;28;19952;-66
2022/06/02 11:04:21;;;;;;;;;;;;;;;;;;4968647;28;19988;-64
2022/06/02 11:06:49;;;;;;;;;;;;;;;;;;4948595;28;20041;-66
2022/06/02 11:09:14;;;;;;;;;;;;;;;;;;4969057;28;20467;-67
2022/06/02 11:11:40;;;;;;;;;;;;;;;;;;4948369;28;19917;-66
2022/06/02 11:14:07;;;;;;;;;;;;;;;;;;4969652;28;20670;-66
2022/06/02 11:16:33;;;;;;;;;;;;;;;;;;4971392;28;19929;-67
2022/06/02 11:18:59;;;;;;;;;;;;;;;;;;4969578;28;19960;-66
2022/06/02 11:21:24;;;;;;;;;;;;;;;;;;4969485;28;19930;-66
2022/06/02 11:23:52;;;;;;;;;;;;;;;;;;4964978;28;19918;-67
2022/06/02 11:26:22;;;;;;;;;;;;;;;;;;4972019;28;19918;-68
2022/06/02 11:28:48;;;;;;;;;;;;;;;;;;4966616;28;19949;-66
2022/06/02 11:31:13;;;;;;;;;;;;;;;;;;4968138;28;20013;-67
2022/06/02 11:33:43;;;;;;;;;;;;;;;;;;4961882;28;19972;-67
2022/06/02 11:36:09;;;;;;;;;;;;;;;;;;4967204;28;19922;-66
2022/06/02 11:38:35;;;;;;;;;;;;;;;;;;4970662;28;19921;-65
2022/06/02 11:41:00;;;;;;;;;;;;;;;;;;4969402;28;21845;-65
2022/06/02 11:43:26;;;;;;;;;;;;;;;;;;4950581;28;20436;-65
2022/06/02 11:45:55;;;;;;;;;;;;;;;;;;4963042;28;19925;-65
2022/06/02 11:48:20;;;;;;;;;;;;;;;;;;4969211;28;20016;-66
2022/06/02 11:50:49;;;;;;;;;;;;;;;;;;4968238;28;19932;-65
2022/06/02 11:53:14;;;;;;;;;;;;;;;;;;4968089;28;19992;-66
2022/06/02 11:55:40;;;;;;;;;;;;;;;;;;4969988;28;19918;-66
2022/06/02 11:58:07;;;;;;;;;;;;;;;;;;4970148;28;19921;-66
2022/06/02 12:00:33;;;;;;;;;;;;;;;;;;4967819;28;19992;-67
2022/06/02 12:03:01;;;;;;;;;;;;;;;;;;4968164;28;19922;-66
2022/06/02 12:05:27;;;;;;;;;;;;;;;;;;4967082;28;19944;-68
2022/06/02 12:07:53;;;;;;;;;;;;;;;;;;4967350;28;19928;-66
2022/06/02 12:10:18;;;;;;;;;;;;;;;;;;4963345;28;19949;-66
2022/06/02 12:12:45;;;;;;;;;;;;;;;;;;4969896;28;19926;-66
2022/06/02 12:15:11;;;;;;;;;;;;;;;;;;4967672;28;19922;-65
2022/06/02 12:17:39;;;;;;;;;;;;;;;;;;4966103;28;20051;-65
2022/06/02 12:20:04;;;;;;;;;;;;;;;;;;4965464;28;20393;-65
2022/06/02 12:22:30;;;;;;;;;;;;;;;;;;4964934;28;19926;-65
2022/06/02 12:24:58;;;;;;;;;;;;;;;;;;4970158;28;19925;-66
2022/06/02 12:27:24;;;;;;;;;;;;;;;;;;4969703;28;19922;-66
2022/06/02 12:30:08;;;;;;;;;;;;;;;;;;4965139;28;19925;-67
2022/06/02 12:32:34;;;;;;;;;;;;;;;;;;4968045;28;19922;-67
2022/06/02 12:35:02;;;;;;;;;;;;;;;;;;4966481;28;20429;-65
2022/06/02 12:37:28;;;;;;;;;;;;;;;;;;4968807;28;19930;-67
2022/06/02 12:43:10;;;;;;;;;;;;;;;;;;4967063;28;19982;-67
2022/06/02 12:45:36;;;;;;;;;;;;;;;;;;4968189;28;19932;-67
2022/06/02 12:48:02;;;;;;;;;;;;;;;;;;4961168;28;19926;-67
2022/06/02 12:50:27;;;;;;;;;;;;;;;;;;4967466;28;19969;-67
2022/06/02 12:52:52;;;;;;;;;;;;;;;;;;4966389;28;19922;-67
2022/06/02 12:55:20;;;;;;;;;;;;;;;;;;4969659;28;19921;-67
2022/06/02 12:57:45;;;;;;;;;;;;;;;;;;4953112;28;21363;-65
2022/06/02 13:00:13;;;;;;;;;;;;;;;;;;4968173;28;19922;-65
2022/06/02 13:02:39;;;;;;;;;;;;;;;;;;4964438;28;20010;-65
2022/06/02 13:05:04;;;;;;;;;;;;;;;;;;4949657;28;19922;-65
2022/06/02 13:07:32;;;;;;;;;;;;;;;;;;4967336;28;19925;-66
2022/06/02 13:09:57;;;;;;;;;;;;;;;;;;4965325;28;19984;-66
2022/06/02 13:12:23;;;;;;;;;;;;;;;;;;4966119;28;21247;-65
2022/06/02 13:14:48;;;;;;;;;;;;;;;;;;4949087;28;20495;-65
2022/06/02 13:17:13;;;;;;;;;;;;;;;;;;4967189;28;20346;-65
2022/06/02 13:19:39;;;;;;;;;;;;;;;;;;4961460;28;20756;-64
2022/06/02 13:22:08;;;;;;;;;;;;;;;;;;4967885;28;21840;-66
2022/06/02 13:24:36;;;;;;;;;;;;;;;;;;4961263;28;19917;-65
2022/06/02 13:27:03;;;;;;;;;;;;;;;;;;4967428;28;19926;-66
2022/06/02 13:29:31;;;;;;;;;;;;;;;;;;4966517;28;20555;-66
2022/06/02 13:31:59;;;;;;;;;;;;;;;;;;4966225;28;19954;-66
2022/06/02 13:34:26;;;;;;;;;;;;;;;;;;4967451;28;19968;-65
2022/06/02 13:36:51;;;;;;;;;;;;;;;;;;4964883;28;19921;-67
2022/06/02 13:39:17;;;;;;;;;;;;;;;;;;4947419;28;19922;-66
2022/06/02 13:41:51;;;;;;;;;;;;;;;;;;4968305;28;19918;-65
2022/06/02 13:44:16;;;;;;;;;;;;;;;;;;4964699;28;19922;-66
2022/06/02 13:46:41;;;;;;;;;;;;;;;;;;4948992;28;20518;-66
2022/06/02 13:49:10;;;;;;;;;;;;;;;;;;4966657;28;19929;-65
2022/06/02 13:51:36;;;;;;;;;;;;;;;;;;4967954;28;19922;-65
2022/06/02 13:59:29;;;;;;;;;;;;;;;;;;4968171;28;20376;-65
2022/06/02 14:01:55;;;;;;;;;;;;;;;;;;4967727;28;19926;-65
2022/06/02 14:04:21;;;;;;;;;;;;;;;;;;4969658;28;19928;-66
2022/06/02 14:06:46;;;;;;;;;;;;;;;;;;4969478;28;19933;-64
2022/06/02 14:09:12;;;;;;;;;;;;;;;;;;4971305;28;19921;-65
2022/06/02 14:11:43;;;;;;;;;;;;;;;;;;4968245;28;20017;-64
2022/06/02 14:17:23;;;;;;;;;;;;;;;;;;4984667;28;19921;-65
2022/06/02 14:19:49;;;;;;;;;;;;;;;;;;4973932;28;20007;-65
2022/06/02 14:22:18;;;;;;;;;;;;;;;;;;4974697;28;20064;-65
2022/06/02 14:24:46;;;;;;;;;;;;;;;;;;4990685;28;19968;-66
2022/06/02 14:27:14;;;;;;;;;;;;;;;;;;4990731;28;20613;-65
2022/06/02 14:29:40;;;;;;;;;;;;;;;;;;4993498;28;19952;-65
2022/06/02 14:32:08;;;;;;;;;;;;;;;;;;4990131;28;19922;-65
2022/06/02 14:34:34;;;;;;;;;;;;;;;;;;4976874;28;19928;-67
2022/06/02 14:37:01;;;;;;;;;;;;;;;;;;4976146;28;20704;-65
2022/06/02 14:39:29;;;;;;;;;;;;;;;;;;4990705;28;19924;-64
2022/06/02 14:41:55;;;;;;;;;;;;;;;;;;4975901;28;19921;-65
2022/06/02 14:44:20;;;;;;;;;;;;;;;;;;4973660;28;20782;-65
2022/06/02 14:50:04;;;;;;;;;;;;;;;;;;4967017;28;20021;-65
2022/06/02 14:52:32;;;;;;;;;;;;;;;;;;4980176;28;20561;-65
2022/06/02 14:54:58;;;;;;;;;;;;;;;;;;4967786;28;19925;-66
2022/06/02 14:57:24;;;;;;;;;;;;;;;;;;4978912;28;19918;-65
2022/06/02 14:59:49;;;;;;;;;;;;;;;;;;4985472;28;19917;-65
2022/06/02 15:02:15;;;;;;;;;;;;;;;;;;4977009;28;20529;-65
2022/06/02 15:04:41;;;;;;;;;;;;;;;;;;4967616;28;19921;-65
2022/06/02 15:07:07;;;;;;;;;;;;;;;;;;4966649;28;19925;-66
2022/06/02 15:09:33;;;;;;;;;;;;;;;;;;4968412;28;19926;-65
2022/06/02 15:12:00;;;;;;;;;;;;;;;;;;4967969;28;20561;-65
2022/06/02 15:14:25;;;;;;;;;;;;;;;;;;4961806;28;20397;-65
2022/06/02 15:16:51;;;;;;;;;;;;;;;;;;4990973;28;19925;-65
2022/06/02 15:19:17;;;;;;;;;;;;;;;;;;4994324;28;20371;-65
2022/06/02 15:21:42;;;;;;;;;;;;;;;;;;4988448;28;19922;-64
2022/06/02 15:24:08;;;;;;;;;;;;;;;;;;4983326;28;19960;-64
2022/06/02 15:26:33;;;;;;;;;;;;;;;;;;4992037;28;20072;-65
2022/06/02 15:28:59;;;;;;;;;;;;;;;;;;4992347;28;19987;-65
2022/06/02 15:31:25;;;;;;;;;;;;;;;;;;4995249;28;19972;-64
2022/06/02 15:33:51;;;;;;;;;;;;;;;;;;4992334;28;20946;-64
2022/06/02 15:36:18;;;;;;;;;;;;;;;;;;4987193;28;19921;-64
2022/06/02 15:38:43;;;;;;;;;;;;;;;;;;4993261;28;20516;-63
2022/06/02 15:41:12;;;;;;;;;;;;;;;;;;4986546;28;19926;-63
2022/06/02 15:43:39;;;;;;;;;;;;;;;;;;4991584;28;19925;-64
2022/06/02 15:46:05;;;;;;;;;;;;;;;;;;4995619;28;19928;-64
2022/06/02 15:48:35;;;;;;;;;;;;;;;;;;4986430;28;19940;-64
2022/06/02 15:51:03;;;;;;;;;;;;;;;;;;4994193;28;19933;-65
2022/06/02 15:53:28;;;;;;;;;;;;;;;;;;4987482;28;19948;-66
2022/06/02 15:55:55;;;;;;;;;;;;;;;;;;4995306;28;19921;-64
2022/06/02 15:58:22;;;;;;;;;;;;;;;;;;4988372;28;19940;-64
2022/06/02 16:00:48;;;;;;;;;;;;;;;;;;4991709;28;19917;-64
2022/06/02 16:03:13;;;;;;;;;;;;;;;;;;4983263;28;19921;-64
2022/06/02 16:05:38;;;;;;;;;;;;;;;;;;4990967;28;19921;-64
2022/06/02 16:08:04;;;;;;;;;;;;;;;;;;4992745;28;19941;-64
2022/06/02 16:16:29;;;;;;;;;;;;;;;;;;4996837;28;19932;-63
2022/06/02 16:18:54;;;;;;;;;;;;;;;;;;5007632;28;20574;-64
2022/06/02 16:21:20;;;;;;;;;;;;;;;;;;4990351;28;19976;-65
2022/06/02 16:23:46;;;;;;;;;;;;;;;;;;4986657;28;19917;-63
2022/06/02 16:26:11;;;;;;;;;;;;;;;;;;4974995;28;20300;-64
2022/06/02 16:28:37;;;;;;;;;;;;;;;;;;4990390;28;19929;-64
2022/06/02 16:31:02;;;;;;;;;;;;;;;;;;4995029;28;19921;-64
2022/06/02 16:33:35;;;;;;;;;;;;;;;;;;4985019;28;20562;-64
2022/06/02 16:36:03;;;;;;;;;;;;;;;;;;4992048;28;19995;-63
2022/06/02 16:38:29;;;;;;;;;;;;;;;;;;5007257;28;20051;-64
2022/06/02 16:40:55;;;;;;;;;;;;;;;;;;5008695;28;20207;-64
2022/06/02 16:43:21;;;;;;;;;;;;;;;;;;5008263;28;19953;-63
2022/06/02 16:45:47;;;;;;;;;;;;;;;;;;5005901;28;19975;-64
2022/06/02 16:48:13;;;;;;;;;;;;;;;;;;5008545;28;20321;-64
2022/06/02 16:50:41;;;;;;;;;;;;;;;;;;5006191;28;19932;-65
2022/06/02 16:53:06;;;;;;;;;;;;;;;;;;4993585;28;20292;-63
2022/06/02 16:55:32;;;;;;;;;;;;;;;;;;5006737;28;19925;-64
2022/06/02 16:57:58;;;;;;;;;;;;;;;;;;5006334;28;20838;-64
2022/06/02 17:00:26;;;;;;;;;;;;;;;;;;4976360;28;19928;-64
2022/06/02 17:02:53;;;;;;;;;;;;;;;;;;5004656;28;19939;-63
2022/06/02 17:05:18;;;;;;;;;;;;;;;;;;4991985;28;19929;-64
2022/06/02 17:07:47;;;;;;;;;;;;;;;;;;5006326;28;19979;-64
2022/06/02 17:10:13;;;;;;;;;;;;;;;;;;5006419;28;20007;-64
2022/06/02 17:12:38;;;;;;;;;;;;;;;;;;5007515;28;19921;-65
2022/06/02 17:22:00;;;;;;;;;;;;;;;;;;5008177;28;21216;-64
2022/06/02 17:24:27;;;;;;;;;;;;;;;;;;5004420;28;20009;-65
2022/06/02 17:26:52;;;;;;;;;;;;;;;;;;4989599;28;19929;-64
2022/06/02 17:32:33;;;;;;;;;;;;;;;;;;5005531;28;19950;-65
2022/06/02 17:34:59;;;;;;;;;;;;;;;;;;5004841;28;20381;-67
2022/06/02 17:37:24;;;;;;;;;;;;;;;;;;4992465;28;20000;-66
2022/06/02 17:39:52;;;;;;;;;;;;;;;;;;4986878;28;19921;-66
2022/06/02 17:42:19;;;;;;;;;;;;;;;;;;4990451;28;20503;-65